createdAt,value
2022-09-20T00:01:08.131Z,3.88
2022-09-20T00:03:36.892Z,3.60
2022-09-20T00:06:05.275Z,3.78
2022-09-20T00:08:32.066Z,4.07
2022-09-20T00:11:03.789Z,3.53
2022-09-20T00:13:31.111Z,3.92
2022-09-20T00:15:58.017Z,3.60
2022-09-20T00:18:25.211Z,3.20
2022-09-20T00:20:52.403Z,3.33
2022-09-20T00:23:19.833Z,3.50
2022-09-20T00:26:00.679Z,3.30
2022-09-20T00:28:28.945Z,3.30
2022-09-20T00:30:56.523Z,3.75
2022-09-20T00:33:45.443Z,3.70
2022-09-20T00:36:12.470Z,3.53
2022-09-20T00:38:39.330Z,3.58
2022-09-20T00:41:06.007Z,3.78
2022-09-20T00:43:41.438Z,3.60
2022-09-20T00:46:42.765Z,3.90
2022-09-20T00:49:25.749Z,4.10
2022-09-20T00:51:57.524Z,4.47
2022-09-20T00:54:26.422Z,3.92
2022-09-20T00:56:53.422Z,4.05
2022-09-20T00:59:28.309Z,4.20
2022-09-20T01:02:05.623Z,4.28
2022-09-20T01:04:35.456Z,4.40
2022-09-20T01:07:05.945Z,4.28
2022-09-20T01:09:32.659Z,4.80
2022-09-20T01:12:03.706Z,5.13
2022-09-20T01:14:30.877Z,4.22
2022-09-20T01:17:02.651Z,4.10
2022-09-20T01:19:48.653Z,4.70
2022-09-20T01:22:27.506Z,4.20
2022-09-20T01:25:17.921Z,4.40
2022-09-20T01:27:59.194Z,4.22
2022-09-20T01:30:36.688Z,4.28
2022-09-20T01:33:28.525Z,4.30
2022-09-20T01:35:58.683Z,4.13
2022-09-20T01:38:45.467Z,4.32
2022-09-20T01:41:26.038Z,4.38
2022-09-20T01:43:58.816Z,4.55
2022-09-20T01:46:31.468Z,4.20
2022-09-20T01:49:16.490Z,5.28
2022-09-20T01:52:12.265Z,5.07
2022-09-20T01:55:06.838Z,4.97
2022-09-20T01:57:58.389Z,4.43
2022-09-20T02:00:37.075Z,4.07
2022-09-20T02:03:23.746Z,5.15
2022-09-20T02:06:12.786Z,4.70
2022-09-20T02:09:21.607Z,4.10
2022-09-20T02:11:59.225Z,4.30
2022-09-20T02:14:35.264Z,4.30
2022-09-20T02:17:35.990Z,4.45
2022-09-20T02:20:30.674Z,4.40
2022-09-20T02:23:22.455Z,4.30
2022-09-20T02:26:08.566Z,4.07
2022-09-20T02:28:53.642Z,4.80
2022-09-20T02:31:32.532Z,5.28
2022-09-20T02:34:16.216Z,4.43
2022-09-20T02:37:01.711Z,4.82
2022-09-20T02:39:36.719Z,4.60
2022-09-20T02:42:17.320Z,4.43
2022-09-20T02:45:22.140Z,4.60
2022-09-20T02:47:48.729Z,4.68
2022-09-20T02:50:34.148Z,3.97
2022-09-20T02:53:26.967Z,4.47
2022-09-20T02:56:34.962Z,4.47
2022-09-20T02:59:05.673Z,4.82
2022-09-20T03:01:56.294Z,4.75
2022-09-20T03:04:48.306Z,5.57
2022-09-20T03:07:20.818Z,4.80
2022-09-20T03:10:14.201Z,5.10
2022-09-20T03:13:02.743Z,5.23
2022-09-20T03:15:54.341Z,4.95
2022-09-20T03:19:03.034Z,4.70
2022-09-20T03:21:50.957Z,4.82
2022-09-20T03:25:04.529Z,5.05
2022-09-20T03:27:44.655Z,5.25
2022-09-20T03:30:26.272Z,5.63
2022-09-20T03:33:15.881Z,5.65
2022-09-20T03:36:01.258Z,5.32
2022-09-20T03:39:01.755Z,5.07
2022-09-20T03:41:55.019Z,5.40
2022-09-20T03:44:38.220Z,4.53
2022-09-20T03:47:17.294Z,5.47
2022-09-20T03:50:13.916Z,4.95
2022-09-20T03:53:05.158Z,5.25
2022-09-20T03:55:53.728Z,5.15
2022-09-20T03:58:42.234Z,4.68
2022-09-20T04:01:28.120Z,5.15
2022-09-20T04:04:12.420Z,5.03
2022-09-20T04:06:38.934Z,4.78
2022-09-20T04:09:25.939Z,5.22
2022-09-20T04:12:11.207Z,5.85
2022-09-20T04:14:41.522Z,5.47
2022-09-20T04:17:39.509Z,5.38
2022-09-20T04:20:13.803Z,5.18
2022-09-20T04:22:44.638Z,5.07
2022-09-20T04:25:19.326Z,4.80
2022-09-20T04:27:58.598Z,5.13
2022-09-20T04:30:30.194Z,4.40
2022-09-20T04:33:13.068Z,5.43
2022-09-20T04:36:30.280Z,5.00
2022-09-20T04:39:25.508Z,4.60
2022-09-20T04:42:30.098Z,4.70
2022-09-20T04:48:06.712Z,3.75
2022-09-20T04:51:07.119Z,4.80
2022-09-20T04:53:55.006Z,4.10
2022-09-20T04:56:38.150Z,4.82
2022-09-20T04:59:10.312Z,4.93
2022-09-20T05:01:55.911Z,4.80
2022-09-20T05:04:38.329Z,5.28
2022-09-20T05:07:23.065Z,4.90
2022-09-20T05:10:27.072Z,5.00
2022-09-20T05:13:00.701Z,5.20
2022-09-20T05:18:26.749Z,4.80
2022-09-20T05:21:19.971Z,5.18
2022-09-20T05:23:52.917Z,5.22
2022-09-20T05:26:46.919Z,4.97
2022-09-20T05:29:28.986Z,5.53
2022-09-20T05:32:11.905Z,5.80
2022-09-20T05:35:01.961Z,5.25
2022-09-20T05:37:44.124Z,5.35
2022-09-20T05:40:22.284Z,6.07
2022-09-20T05:43:00.489Z,5.80
2022-09-20T05:46:04.876Z,5.40
2022-09-20T05:49:03.860Z,5.65
2022-09-20T05:51:47.733Z,5.18
2022-09-20T05:57:21.255Z,5.22
2022-09-20T06:00:14.104Z,6.53
2022-09-20T06:02:57.133Z,5.30
2022-09-20T06:05:58.950Z,5.33
2022-09-20T06:08:43.782Z,5.53
2022-09-20T06:11:29.190Z,5.07
2022-09-20T06:14:27.862Z,5.07
2022-09-20T06:17:33.065Z,5.68
2022-09-20T06:20:16.018Z,5.38
2022-09-20T06:22:49.810Z,4.90
2022-09-20T06:25:23.650Z,4.72
2022-09-20T06:30:34.778Z,4.80
2022-09-20T06:33:13.081Z,4.40
2022-09-20T06:36:23.665Z,4.18
2022-09-20T06:39:44.837Z,4.25
2022-09-20T06:42:11.743Z,3.83
2022-09-20T06:44:41.220Z,3.75
2022-09-20T06:47:14.266Z,3.92
2022-09-20T06:49:42.348Z,3.60
2022-09-20T06:52:14.568Z,3.65
2022-09-20T06:54:45.622Z,4.07
2022-09-20T06:57:15.956Z,4.80
2022-09-20T06:59:42.521Z,3.08
2022-09-20T07:02:09.059Z,5.57
2022-09-20T07:04:35.946Z,3.92
2022-09-20T07:07:09.121Z,3.58
2022-09-20T07:12:03.313Z,3.17
2022-09-20T07:14:29.996Z,3.53
2022-09-20T07:16:56.826Z,3.30
2022-09-20T07:19:23.463Z,2.90
2022-09-20T07:21:50.266Z,3.20
2022-09-20T07:24:17.784Z,2.67
2022-09-20T07:27:03.517Z,2.42
2022-09-20T07:29:32.863Z,2.30
2022-09-20T07:31:59.550Z,2.83
2022-09-20T07:34:27.282Z,2.70
2022-09-20T07:36:53.960Z,2.63
2022-09-20T07:39:20.673Z,2.10
2022-09-20T07:41:48.642Z,2.40
2022-09-20T07:44:21.592Z,2.30
2022-09-20T07:46:59.378Z,2.20
2022-09-20T07:49:29.922Z,2.45
2022-09-20T07:51:56.685Z,2.20
2022-09-20T07:54:23.286Z,2.08
2022-09-20T07:56:50.145Z,1.90
2022-09-20T07:59:16.998Z,2.22
2022-09-20T08:01:43.911Z,1.95
2022-09-20T08:04:11.261Z,2.03
2022-09-20T08:06:44.774Z,2.55
2022-09-20T08:11:40.512Z,2.03
2022-09-20T08:14:09.037Z,1.92
2022-09-20T08:16:42.009Z,2.28
2022-09-20T08:19:09.417Z,1.45
2022-09-20T08:21:38.328Z,2.50
2022-09-20T08:24:05.229Z,1.67
2022-09-20T08:26:32.317Z,1.65
2022-09-20T08:29:00.181Z,1.70
2022-09-20T08:31:30.674Z,1.50
2022-09-20T08:33:59.176Z,1.95
2022-09-20T08:36:27.567Z,1.35
2022-09-20T08:41:59.313Z,1.77
2022-09-20T08:44:35.191Z,1.67
2022-09-20T08:47:25.989Z,2.28
2022-09-20T08:49:57.710Z,1.20
2022-09-20T08:52:36.184Z,1.40
2022-09-20T08:55:39.676Z,1.30
2022-09-20T08:58:11.980Z,1.27
2022-09-20T09:00:42.968Z,1.10
2022-09-20T09:03:17.179Z,1.92
2022-09-20T09:05:48.328Z,2.58
2022-09-20T09:08:18.553Z,1.35
2022-09-20T09:10:53.095Z,1.58
2022-09-20T09:13:53.200Z,1.50
2022-09-20T09:16:28.756Z,0.98
2022-09-20T09:19:33.378Z,1.45
2022-09-20T09:22:03.310Z,1.92
2022-09-20T09:24:33.328Z,1.25
2022-09-20T09:27:19.569Z,1.10
2022-09-20T09:30:19.690Z,1.52
2022-09-20T09:32:46.648Z,1.30
2022-09-20T09:35:24.640Z,1.33
2022-09-20T09:38:02.302Z,1.17
2022-09-20T09:40:31.811Z,1.00
2022-09-20T09:43:02.643Z,1.25
2022-09-20T09:45:38.643Z,1.10
2022-09-20T09:48:22.614Z,2.75
2022-09-20T09:53:20.695Z,1.20
2022-09-20T09:56:26.941Z,1.17
2022-09-20T09:59:02.516Z,1.10
2022-09-20T10:01:47.903Z,1.30
2022-09-20T10:04:35.730Z,1.08
2022-09-20T10:07:33.643Z,1.23
2022-09-20T10:10:28.086Z,1.40
2022-09-20T10:13:13.397Z,1.40
2022-09-20T10:15:56.388Z,1.10
2022-09-20T10:18:33.883Z,1.37
2022-09-20T10:21:18.598Z,1.73
2022-09-20T10:24:04.942Z,1.20
2022-09-20T10:26:50.669Z,2.55
2022-09-20T10:29:33.791Z,1.27
2022-09-20T10:32:13.887Z,7.18
2022-09-20T10:34:41.640Z,1.27
2022-09-20T10:37:24.091Z,1.17
2022-09-20T10:40:07.170Z,1.23
2022-09-20T10:43:05.109Z,1.20
2022-09-20T10:46:14.033Z,1.50
2022-09-20T10:48:47.438Z,1.15
2022-09-20T10:51:34.083Z,1.65
2022-09-20T10:54:40.049Z,1.20
2022-09-20T10:57:46.850Z,1.20
2022-09-20T11:00:25.536Z,2.40
2022-09-20T11:03:10.796Z,1.38
2022-09-20T11:06:12.650Z,0.85
2022-09-20T11:08:42.806Z,1.33
2022-09-20T11:11:34.709Z,1.40
2022-09-20T11:14:19.377Z,1.40
2022-09-20T11:17:02.324Z,1.30
2022-09-20T11:19:48.474Z,0.98
2022-09-20T11:22:21.628Z,1.05
2022-09-20T11:24:53.945Z,0.98
2022-09-20T11:27:29.525Z,0.90
2022-09-20T11:30:16.803Z,0.75
2022-09-20T11:33:05.738Z,1.00
2022-09-20T11:35:46.306Z,5.18
2022-09-20T11:38:22.310Z,2.60
2022-09-20T11:41:08.726Z,1.00
2022-09-20T11:43:42.696Z,3.13
2022-09-20T11:46:13.813Z,0.90
2022-09-20T11:48:44.550Z,1.20
2022-09-20T11:51:20.231Z,0.93
2022-09-20T11:53:55.934Z,1.38
2022-09-20T11:56:27.679Z,1.00
2022-09-20T11:58:57.246Z,1.33
2022-09-20T12:01:29.028Z,1.33
2022-09-20T12:04:34.767Z,1.17
2022-09-20T12:07:18.315Z,0.90
2022-09-20T12:10:06.362Z,1.23
2022-09-20T12:12:41.592Z,1.20
2022-09-20T12:15:36.971Z,1.73
2022-09-20T12:18:34.546Z,1.20
2022-09-20T12:21:16.178Z,1.38
2022-09-20T12:23:45.334Z,1.00
2022-09-20T12:26:21.507Z,0.90
2022-09-20T12:28:51.034Z,1.15
2022-09-20T12:31:29.651Z,1.05
2022-09-20T12:34:10.291Z,1.00
2022-09-20T12:36:39.213Z,1.33
2022-09-20T12:39:10.968Z,1.20
2022-09-20T12:41:52.978Z,1.20
2022-09-20T12:44:41.842Z,1.08
2022-09-20T12:47:35.618Z,1.15
2022-09-20T12:50:34.135Z,1.33
2022-09-20T12:53:04.539Z,3.05
2022-09-20T12:55:33.941Z,1.60
2022-09-20T12:58:18.601Z,1.50
2022-09-20T13:00:59.288Z,2.00
2022-09-20T13:03:38.509Z,1.40
2022-09-20T13:06:12.174Z,1.42
2022-09-20T13:08:48.276Z,2.08
2022-09-20T13:11:22.396Z,1.33
2022-09-20T13:14:18.930Z,1.48
2022-09-20T13:16:54.590Z,1.50
2022-09-20T13:19:39.260Z,1.33
2022-09-20T13:22:16.242Z,1.10
2022-09-20T13:24:51.769Z,1.60
2022-09-20T13:27:23.831Z,1.13
2022-09-20T13:29:50.992Z,1.15
2022-09-20T13:32:28.981Z,1.38
2022-09-20T13:35:14.895Z,1.17
2022-09-20T13:38:00.159Z,1.50
2022-09-20T13:40:34.353Z,2.00
2022-09-20T13:43:22.533Z,1.60
2022-09-20T13:45:56.193Z,1.90
2022-09-20T13:48:28.004Z,1.33
2022-09-20T13:51:04.324Z,1.90
2022-09-20T13:53:46.314Z,1.55
2022-09-20T13:56:29.759Z,1.40
2022-09-20T13:58:59.028Z,1.50
2022-09-20T14:01:32.945Z,4.45
2022-09-20T14:04:05.218Z,1.75
2022-09-20T14:06:32.373Z,2.38
2022-09-20T14:09:08.347Z,4.20
2022-09-20T14:11:38.468Z,1.70
2022-09-20T14:14:07.109Z,1.75
2022-09-20T14:16:39.655Z,1.55
2022-09-20T14:19:09.691Z,0.80
2022-09-20T14:21:38.221Z,0.88
2022-09-20T14:24:27.523Z,1.20
2022-09-20T14:27:20.887Z,1.15
2022-09-20T14:29:50.751Z,0.85
2022-09-20T14:32:17.364Z,1.20
2022-09-20T14:34:46.764Z,1.52
2022-09-20T14:37:36.767Z,1.38
2022-09-20T14:40:16.609Z,1.60
2022-09-20T14:42:48.439Z,1.30
2022-09-20T14:45:28.082Z,1.30
2022-09-20T14:48:10.457Z,1.05
2022-09-20T14:50:39.905Z,1.13
2022-09-20T14:53:12.635Z,0.90
2022-09-20T14:56:25.519Z,0.95
2022-09-20T14:59:19.208Z,1.08
2022-09-20T15:02:10.350Z,1.02
2022-09-20T15:04:38.043Z,1.38
2022-09-20T15:07:07.063Z,1.45
2022-09-20T15:09:35.239Z,1.40
2022-09-20T15:12:12.134Z,1.48
2022-09-20T15:14:40.646Z,1.27
2022-09-20T15:17:18.117Z,1.20
2022-09-20T15:19:46.164Z,1.65
2022-09-20T15:22:14.129Z,3.95
2022-09-20T15:24:41.578Z,1.73
2022-09-20T15:27:09.366Z,1.30
2022-09-20T15:29:35.996Z,1.50
2022-09-20T15:32:04.506Z,1.80
2022-09-20T15:34:32.123Z,1.40
2022-09-20T15:36:58.811Z,1.08
2022-09-20T15:39:25.926Z,1.50
2022-09-20T15:41:53.459Z,1.40
2022-09-20T15:44:20.700Z,2.47
2022-09-20T15:46:50.084Z,2.65
2022-09-20T15:49:16.921Z,1.92
2022-09-20T15:51:43.586Z,1.80
2022-09-20T15:54:13.168Z,2.28
2022-09-20T15:56:40.453Z,2.28
2022-09-20T15:59:09.347Z,1.08
2022-09-20T16:01:41.776Z,1.85
2022-09-20T16:04:19.242Z,1.55
2022-09-20T16:06:49.438Z,2.25
2022-09-20T16:09:19.508Z,1.63
2022-09-20T16:11:48.231Z,1.38
2022-09-20T16:14:15.443Z,0.95
2022-09-20T16:16:42.091Z,1.48
2022-09-20T16:19:19.617Z,1.95
2022-09-20T16:21:58.294Z,1.60
2022-09-20T16:24:28.557Z,1.90
2022-09-20T16:26:55.447Z,1.40
2022-09-20T16:29:22.398Z,1.58
2022-09-20T16:31:50.334Z,1.63
2022-09-20T16:34:21.988Z,1.38
2022-09-20T16:36:54.202Z,1.50
2022-09-20T16:39:27.661Z,2.00
2022-09-20T16:41:57.285Z,5.00
2022-09-20T16:44:24.581Z,2.40
2022-09-20T16:46:51.484Z,1.95
2022-09-20T16:49:18.467Z,2.33
2022-09-20T16:51:46.337Z,1.40
2022-09-20T16:54:15.455Z,1.45
2022-09-20T16:56:47.526Z,2.22
2022-09-20T16:59:16.302Z,3.38
2022-09-20T17:01:43.864Z,1.48
2022-09-20T17:04:13.449Z,1.60
2022-09-20T17:06:41.799Z,1.83
2022-09-20T17:09:09.023Z,2.03
2022-09-20T17:11:39.277Z,1.75
2022-09-20T17:14:06.409Z,2.08
2022-09-20T17:16:39.846Z,2.10
2022-09-20T17:19:12.586Z,2.00
2022-09-20T17:21:45.178Z,2.40
2022-09-20T17:24:13.741Z,2.83
2022-09-20T17:26:44.435Z,4.43
2022-09-20T17:29:16.993Z,2.38
2022-09-20T17:31:54.481Z,2.58
2022-09-20T17:34:23.877Z,2.97
2022-09-20T17:36:50.880Z,3.30
2022-09-20T17:39:18.316Z,3.25
2022-09-20T17:41:47.113Z,4.20
2022-09-20T17:44:14.622Z,2.55
2022-09-20T17:46:49.872Z,3.10
2022-09-20T17:49:21.959Z,3.20
2022-09-20T17:51:51.113Z,3.20
2022-09-20T17:54:19.143Z,3.80
2022-09-20T17:56:48.737Z,3.53
2022-09-20T17:59:19.008Z,4.15
2022-09-20T18:01:47.845Z,2.55
2022-09-20T18:04:14.629Z,2.50
2022-09-20T18:06:45.134Z,1.80
2022-09-20T18:09:15.488Z,3.13
2022-09-20T18:11:49.855Z,2.70
2022-09-20T18:14:25.025Z,2.70
2022-09-20T18:16:53.182Z,2.72
2022-09-20T18:19:21.415Z,2.10
2022-09-20T18:21:48.557Z,1.92
2022-09-20T18:24:15.200Z,2.10
2022-09-20T18:26:42.073Z,1.60
2022-09-20T18:29:13.891Z,2.45
2022-09-20T18:31:44.712Z,2.45
2022-09-20T18:34:20.282Z,2.78
2022-09-20T18:36:52.525Z,1.80
2022-09-20T18:39:27.583Z,2.03
2022-09-20T18:41:55.119Z,1.40
2022-09-20T18:44:23.068Z,1.27
2022-09-20T18:46:54.159Z,1.80
2022-09-20T18:49:21.698Z,1.77
2022-09-20T18:51:48.861Z,1.80
2022-09-20T18:54:17.705Z,1.70
2022-09-20T18:56:46.730Z,1.85
2022-09-20T18:59:32.295Z,1.90
2022-09-20T19:02:35.847Z,2.33
2022-09-20T19:05:28.224Z,2.50
2022-09-20T19:08:08.792Z,1.80
2022-09-20T19:10:56.130Z,2.05
2022-09-20T19:13:27.302Z,1.73
2022-09-20T19:18:50.724Z,1.92
2022-09-20T19:21:31.027Z,2.35
2022-09-20T19:24:22.487Z,2.60
2022-09-20T19:26:49.487Z,2.53
2022-09-20T19:29:22.410Z,2.53
2022-09-20T19:31:51.331Z,1.83
2022-09-20T19:34:21.874Z,2.08
2022-09-20T19:37:18.843Z,2.15
2022-09-20T19:39:58.469Z,2.33
2022-09-20T19:42:42.405Z,2.60
2022-09-20T19:47:58.075Z,2.13
2022-09-20T19:52:57.885Z,2.55
2022-09-20T19:55:25.132Z,2.88
2022-09-20T19:57:52.127Z,3.05
2022-09-20T20:00:21.251Z,3.22
2022-09-20T20:02:48.909Z,3.30
2022-09-20T20:05:21.074Z,3.83
2022-09-20T20:08:14.422Z,2.55
2022-09-20T20:11:00.092Z,3.60
2022-09-20T20:13:55.526Z,3.05
2022-09-20T20:16:33.557Z,2.92
2022-09-20T20:19:31.808Z,3.03
2022-09-20T20:22:29.936Z,2.92
2022-09-20T20:24:57.399Z,3.78
2022-09-20T20:27:25.980Z,2.58
2022-09-20T20:29:52.614Z,3.60
2022-09-20T20:32:19.332Z,3.05
2022-09-20T20:34:46.885Z,2.97
2022-09-20T20:37:13.865Z,2.85
2022-09-20T20:39:40.444Z,2.88
2022-09-20T20:42:08.419Z,2.90
2022-09-20T20:44:35.056Z,3.38
2022-09-20T20:47:05.874Z,2.88
2022-09-20T20:49:32.972Z,3.28
2022-09-20T20:52:04.851Z,2.42
2022-09-20T20:54:32.591Z,2.75
2022-09-20T20:56:59.448Z,2.70
2022-09-20T20:59:26.437Z,2.63
2022-09-20T21:01:53.594Z,2.78
2022-09-20T21:04:21.439Z,2.70
2022-09-20T21:06:47.966Z,3.38
2022-09-20T21:09:14.459Z,2.83
2022-09-20T21:11:44.109Z,3.30
2022-09-20T21:14:12.651Z,3.30
2022-09-20T21:16:45.101Z,2.92
2022-09-20T21:19:15.281Z,3.00
2022-09-20T21:21:43.722Z,2.75
2022-09-20T21:24:17.068Z,2.85
2022-09-20T21:26:44.694Z,2.42
2022-09-20T21:29:12.262Z,2.80
2022-09-20T21:31:41.214Z,2.72
2022-09-20T21:34:09.222Z,2.50
2022-09-20T21:36:37.526Z,2.65
2022-09-20T21:39:05.844Z,3.17
2022-09-20T21:41:34.745Z,3.17
2022-09-20T21:44:03.353Z,3.28
2022-09-20T21:46:31.730Z,3.10
2022-09-20T21:49:00.844Z,3.00
2022-09-20T21:51:31.425Z,3.20
2022-09-20T21:54:01.333Z,3.53
2022-09-20T21:56:31.266Z,3.97
2022-09-20T21:58:58.566Z,4.00
2022-09-20T22:01:27.313Z,4.10
2022-09-20T22:04:01.334Z,3.60
2022-09-20T22:06:30.274Z,3.80
2022-09-20T22:09:01.510Z,4.13
2022-09-20T22:11:34.817Z,3.97
2022-09-20T22:14:02.085Z,3.40
2022-09-20T22:16:37.888Z,3.67
2022-09-20T22:19:07.786Z,3.35
2022-09-20T22:21:37.252Z,3.50
2022-09-20T22:24:07.797Z,2.85
2022-09-20T22:26:40.614Z,3.50
2022-09-20T22:29:07.839Z,3.53
2022-09-20T22:31:37.551Z,3.40
2022-09-20T22:34:07.303Z,3.50
2022-09-20T22:36:36.329Z,2.90
2022-09-20T22:39:05.428Z,3.47
2022-09-20T22:41:32.492Z,3.25
2022-09-20T22:44:02.819Z,3.42
2022-09-20T22:46:31.115Z,3.40
2022-09-20T22:48:58.520Z,3.90
2022-09-20T22:51:28.204Z,3.92
2022-09-20T22:53:55.597Z,3.65
2022-09-20T22:56:29.814Z,3.85
2022-09-20T22:59:05.003Z,4.05
2022-09-20T23:01:34.679Z,3.38
2022-09-20T23:04:08.941Z,4.00
2022-09-20T23:07:02.361Z,3.70
2022-09-20T23:09:29.103Z,3.85
2022-09-20T23:11:56.202Z,4.05
2022-09-20T23:14:23.441Z,3.35
2022-09-20T23:16:50.566Z,3.50
2022-09-20T23:19:18.045Z,3.28
2022-09-20T23:21:45.270Z,3.90
2022-09-20T23:24:14.310Z,3.67
2022-09-20T23:26:43.049Z,4.75
2022-09-20T23:29:15.289Z,4.55
2022-09-20T23:31:46.034Z,4.70
2022-09-20T23:34:14.387Z,5.15
2022-09-20T23:36:41.615Z,4.75
2022-09-20T23:39:09.897Z,4.07
2022-09-20T23:41:37.367Z,3.70
2022-09-20T23:44:09.869Z,4.13
2022-09-20T23:46:37.499Z,4.25
2022-09-20T23:49:04.464Z,3.42
2022-09-20T23:51:32.656Z,3.60
2022-09-20T23:53:59.566Z,3.45
2022-09-20T23:56:27.463Z,3.55
2022-09-20T23:58:54.567Z,3.85
